Station APMA2 - Anchorage Port, AK Image indicating link to RSS feed of recent meteorological observations for station APMA2


Conditions at APMA2 as of
(1:44 am AKDT)
0944 GMT on 05/26/2024:
     

Click on the graph icon in the table below to see a time series plot of the last five days of that observation.

5-day plot - Wind Speed Wind Speed (WSPD): 0 kts
5-day plot - Wind Gust Wind Gust (GST): 2 kts
5-day plot - Air Temperature Air Temperature (ATMP): 52.0 °F
5-day plot - Dew Point Dew Point (DEWP): 41.9 °F
5-day plot - Wind Speed at 10 Meters Wind Speed at 10 meters (WSPD10M): 2 kts
5-day plot - Wind Speed at 20 Meters Wind Speed at 20 meters (WSPD20M): 2 kts
5-day plot -  Wind Speed, Wind Gust and Atmospheric Pressure Combined plot of Wind Speed, Gust, and Air Pressure
Previous observations
TIME
(AKDT)
5-day plot - Wind Direction
WDIR
 
5-day plot - Wind Speed
WSPD
kts
5-day plot - Wind Gust
GST
kts
5-day plot - Wave Height
WVHT
ft
5-day plot - Dominant Wave Period
DPD
sec
5-day plot - Average Wave Period
APD
sec
5-day plot - Mean Wave Direction
MWD
 
5-day plot - Atmospheric Pressure
PRES
in
5-day plot - Pressure Tendency
PTDY
in
5-day plot - Air Temperature
ATMP
°F
5-day plot - Water Temperature
WTMP
°F
5-day plot - Dew Point
DEWP
°F
5-day plot - Salinity
SAL
psu
5-day plot - Visibility
VIS
nmi
5-day plot - Tide (above MLLW)
TIDE
ft
2024-05-26 01:34 am- 1 3------ 51.8- 41.5---
2024-05-26 01:24 am- 2 4------ 52.3- 41.5---
2024-05-26 01:04 am- 0 2------ 53.2- 40.1---
2024-05-26 12:54 am- 2 3------ 53.1- 39.7---
2024-05-26 12:44 am- 2 5------ 53.6- 39.6---
2024-05-26 12:34 am- 3 6------ 53.4- 39.4---
2024-05-26 12:24 am- 3 5------ 53.4- 39.9---
2024-05-26 12:15 am- 2 4------ 53.6- 40.3---
2024-05-26 12:04 am- 2 4------ 54.0- 39.7---
2024-05-25 11:54 pm- 2 4------ 54.0- 39.6---
2024-05-25 11:44 pm- 2 3------ 54.1- 39.9---
2024-05-25 11:34 pm- 2 4------ 54.3- 39.6---
2024-05-25 11:24 pm- 2 5------ 54.7- 39.7---
2024-05-25 11:14 pm- 2 4------ 55.0- 40.3---
2024-05-25 11:04 pm- 2 3------ 55.4- 40.1---
2024-05-25 10:54 pm- 3 7------ 55.6- 39.7---
2024-05-25 10:44 pm- 3 6------ 56.1- 39.7---
2024-05-25 10:34 pm- 2 4------ 56.5- 39.7---
2024-05-25 10:24 pm- 4 6------ 56.1- 39.9---
2024-05-25 10:14 pm- 5 8------ 55.8- 40.1---
2024-05-25 10:04 pm- 5 8------ 55.6- 40.5---
2024-05-25 09:54 pm- 6 8------ 55.4- 41.0---
2024-05-25 09:44 pm- 7 8------ 55.6- 40.5---
2024-05-25 09:34 pm- 6 8------ 55.8- 40.6---
2024-05-25 09:24 pm- 7 8------ 55.9- 40.3---
2024-05-25 09:14 pm- 6 8------ 56.1- 40.5---
2024-05-25 09:04 pm- 7 10------ 56.3- 40.6---
2024-05-25 08:54 pm- 8 10------ 56.3- 40.6---
2024-05-25 08:44 pm- 7 9------ 55.9- 41.0---
2024-05-25 08:35 pm- 7 9------ 56.3- 41.0---
2024-05-25 08:25 pm- 8 9------ 56.1- 41.4---
2024-05-25 08:14 pm- 7 10------ 56.3- 41.5---
2024-05-25 08:04 pm- 7 9------ 55.9- 41.4---
2024-05-25 07:54 pm- 7 8------ 55.4- 41.7---
2024-05-25 07:44 pm- 8 10------ 55.6- 41.2---
2024-05-25 07:34 pm- 9 10------ 55.6- 41.5---
2024-05-25 07:24 pm- 8 10------ 55.4- 41.5---
2024-05-25 07:14 pm- 9 10------ 55.0- 41.7---
2024-05-25 07:04 pm- 10 12------ 54.5- 41.7---
2024-05-25 06:54 pm- 11 12------ 55.2- 40.5---
2024-05-25 06:44 pm- 10 11------ 55.4- 39.6---
2024-05-25 06:34 pm- 10 11------ 55.2- 39.2---
2024-05-25 06:24 pm- 10 11------ 54.9- 39.9---
2024-05-25 06:14 pm- 10 10------ 54.5- 40.8---
2024-05-25 06:04 pm- 10 11------ 54.0- 42.3---
2024-05-25 05:54 pm- 9 11------ 53.8- 42.8---
2024-05-25 05:44 pm- 9 11------ 53.8- 41.7---
2024-05-25 05:34 pm- 10 11------ 53.6- 42.4---
2024-05-25 05:24 pm- 11 12------ 53.2- 42.8---
2024-05-25 05:14 pm- 10 11------ 52.7- 44.4---
2024-05-25 05:04 pm- 8 11------ 52.7- 44.6---
2024-05-25 04:54 pm- 7 9------ 52.5- 44.2---
2024-05-25 04:44 pm- 6 8------ 52.9- 44.2---
2024-05-25 04:34 pm- 6 8------ 52.5- 44.1---
2024-05-25 04:24 pm- 7 8------ 51.6- 44.2---
2024-05-25 04:14 pm- 7 8------ 51.6- 44.6---
2024-05-25 03:54 pm- 8 9------ 50.9- 44.1---
2024-05-25 03:44 pm- 9 11------ 50.5- 43.7---
2024-05-25 03:34 pm- 9 12------ 50.4- 44.1---
2024-05-25 03:24 pm- 9 11------ 50.4- 43.9---
2024-05-25 03:14 pm- 8 11------ 50.5- 44.1---
2024-05-25 03:04 pm- 5 8------ 51.1- 44.2---
2024-05-25 02:54 pm- 5 7------ 51.4- 43.9---
2024-05-25 02:44 pm- 5 8------ 50.9- 43.7---
2024-05-25 02:34 pm- 5 8------ 50.7- 43.9---
2024-05-25 02:24 pm- 5 7------ 50.7- 42.8---
2024-05-25 02:14 pm- 7 8------ 49.8- 42.8---
2024-05-25 02:04 pm- 7 8------ 49.3- 43.5---
2024-05-25 01:54 pm- 5 6------ 49.6- 43.3---
2024-05-25 01:44 pm- 5 7------ 49.8- 43.3---
2024-05-25 01:34 pm- 5 7------ 49.1- 43.2---
2024-05-25 01:24 pm- 5 7------ 48.9- 43.2---
2024-05-25 01:14 pm- 4 5------ 49.1- 42.8---
2024-05-25 01:04 pm- 5 6------ 48.6- 42.4---
2024-05-25 12:54 pm- 5 7------ 48.4- 42.3---
2024-05-25 12:44 pm- 5 7------ 47.8- 42.3---
2024-05-25 12:34 pm- 5 7------ 47.7- 42.3---
2024-05-25 12:14 pm- 5 6------ 47.7- 42.1---
2024-05-25 12:04 pm- 4 5------ 47.8- 42.4---
2024-05-25 11:54 am- 4 5------ 48.2- 42.4---
2024-05-25 11:44 am- 4 7------ 48.0- 41.9---
2024-05-25 11:34 am- 5 6------ 47.8- 42.1---
2024-05-25 11:24 am- 4 5------ 47.8- 41.9---
2024-05-25 11:14 am- 4 7------ 47.7- 41.7---
2024-05-25 11:04 am- 4 6------ 47.7- 41.5---
2024-05-25 10:54 am- 4 5------ 47.8- 41.4---
2024-05-25 10:44 am- 3 6------ 47.8- 41.9---
2024-05-25 10:34 am- 4 5------ 46.9- 41.9---
2024-05-25 10:24 am- 4 6------ 46.9- 41.7---
2024-05-25 10:14 am- 4 5------ 46.9- 41.7---
2024-05-25 10:04 am- 3 5------ 47.1- 41.9---
2024-05-25 09:54 am- 3 4------ 47.1- 42.1---
2024-05-25 09:44 am- 3 4------ 46.8- 41.9---
2024-05-25 09:34 am- 3 5------ 46.6- 41.7---
2024-05-25 09:24 am- 4 6------ 46.2- 41.4---
2024-05-25 09:14 am- 5 6------ 46.2- 41.4---
2024-05-25 09:04 am- 4 6------ 46.2- 41.4---
2024-05-25 08:54 am- 4 6------ 46.2- 41.4---
2024-05-25 08:44 am- 3 5------ 46.0- 41.5---
2024-05-25 08:35 am- 3 4------ 46.2- 41.7---
2024-05-25 08:24 am- 3 4------ 46.2- 41.7---
2024-05-25 08:14 am- 3 3------ 46.2- 41.5---
2024-05-25 08:04 am- 3 3------ 46.2- 41.4---
2024-05-25 07:54 am- 2 3------ 46.4- 41.2---
2024-05-25 07:44 am- 2 3------ 46.4- 41.2---
2024-05-25 07:34 am- 2 2------ 46.4- 41.2---
2024-05-25 07:24 am- 0 2------ 46.8- 41.5---
2024-05-25 07:14 am- 1 2------ 46.4- 41.2---
2024-05-25 07:04 am- 2 3------ 46.2- 41.0---
2024-05-25 06:54 am- 2 3------ 46.0- 40.8---
2024-05-25 06:44 am- 2 3------ 46.0- 40.6---
2024-05-25 06:34 am- 1 2------ 46.4- 41.2---
2024-05-25 06:24 am- 1 3------ 46.2- 41.0---
2024-05-25 06:14 am- 0 2------ 46.2- 41.0---
2024-05-25 06:04 am- 1 2------ 46.2- 41.0---
2024-05-25 05:54 am- 2 3------ 46.0- 40.8---
2024-05-25 05:44 am- 2 3------ 46.0- 40.8---
2024-05-25 05:34 am- 2 3------ 46.0- 40.8---
2024-05-25 05:24 am- 1 3------ 46.2- 41.0---
2024-05-25 05:14 am- 2 3------ 46.0- 40.8---
2024-05-25 05:04 am- 2 3------ 45.9- 40.6---
2024-05-25 04:54 am- 2 3------ 45.9- 41.0---
2024-05-25 04:44 am- 2 3------ 45.9- 41.0---
2024-05-25 04:34 am- 2 4------ 45.9- 40.6---
2024-05-25 04:24 am- 2 4------ 45.9- 40.6---
2024-05-25 04:14 am- 2 3------ 45.9- 40.6---
2024-05-25 04:04 am- 3 5------ 45.9- 40.6---
2024-05-25 03:54 am- 3 5------ 45.9- 40.6---
2024-05-25 03:44 am- 3 6------ 46.0- 40.8---
2024-05-25 03:34 am- 2 5------ 46.0- 40.6---
2024-05-25 03:24 am- 2 4------ 46.2- 40.6---
2024-05-25 03:14 am- 2 4------ 46.4- 40.8---
2024-05-25 03:04 am- 2 4------ 46.6- 41.0---
2024-05-25 02:54 am- 2 3------ 46.8- 41.2---
2024-05-25 02:44 am- 2 4------ 46.6- 41.0---
2024-05-25 02:34 am- 4 6------ 46.6- 41.0---
2024-05-25 02:24 am- 4 8------ 46.4- 40.8---
2024-05-25 02:14 am- 3 6------ 46.2- 40.6---
2024-05-25 02:04 am- 3 6------ 46.2- 40.6---
2024-05-25 01:54 am- 3 6------ 46.8- 40.6---
2024-05-25 01:44 am- 4 6------ 47.5- 39.4---
2024-05-25 01:24 am- 4 5------ 47.7- 38.3---
2024-05-25 01:14 am- 3 5------ 47.8- 39.2---